Terminal Aerodrome Forecast
Issued by NWS

Home | Current Version | Previous Version | Text Only | Print | Product List | Glossary On
Versions: 1 2 3 4 5 6 7 8 9 10 11 12 13 14 15 16 17 18 19
000
FTAK31 PAJN 180500
TAFAWG
TAF
PAWG 180521Z 1806/1906 VRB04KT 6SM -RA BKN030 BKN200
     FM180800 11007KT P6SM VCSH SCT015 BKN050 OVC100
     FM181200 11010KT P6SM -RA SCT020 OVC050
     FM181500 11013KT 6SM -RA SCT020 OVC035
     FM182000 12018G26KT 6SM -RA BR BKN030 OVC045 WS020/16035KT
     FM190300 12016G24KT 6SM -RA BR BKN025 OVC045
      AMD LTD TO CLD VIS AND WIND 1806/1815=

USA.gov is the U.S. government's official web portal to all federal, state and local government web resources and services.